Flugplatz Hahnweide

EDST · Baden-Württemberg, Germany

METAR history EDST · Flugplatz Hahnweide

Below you see METARs of the last few days. Select a year to browse through older METARs, from the year 2007 onwards.

January 28, 2023

Time Code Weather Temp. Visibility Ceiling Wind METAR/SPECI
14:50
M
1 °C 10 km+ 1,400 ft 030° 030° 8 kt METAR EDDS 281350Z AUTO 03008KT 9999 BKN014 OVC020 01/M02 Q1024 NOSIG
14:20
M
1 °C 10 km+ 1,500 ft 020° 020° 8 kt METAR EDDS 281320Z AUTO 02008KT 9999 OVC015 01/M02 Q1024 BECMG OVC014
13:50
M
1 °C 10 km+ 1,600 ft 020° 020° 8 kt METAR EDDS 281250Z AUTO 02008KT 9999 OVC016 01/M02 Q1024 BECMG OVC014
13:20
M
1 °C 10 km+ 1,700 ft 020° 020° 7 kt METAR EDDS 281220Z AUTO 02007KT 9999 FEW010 OVC017 01/M02 Q1024 NOSIG
12:50
M
1 °C 10 km+ 1,700 ft 020° 020° 7 kt METAR EDDS 281150Z AUTO 02007KT 9999 BKN017 OVC022 01/M02 Q1024 NOSIG
12:20
M
1 °C 10 km+ 1,800 ft 040° 040° 7 kt METAR EDDS 281120Z AUTO 04007KT 010V070 9999 BKN018 OVC022 01/M02 Q1024 NOSIG
11:50
M
1 °C 10 km+ 1,600 ft 030° 030° 6 kt METAR EDDS 281050Z AUTO 03006KT 9999 BKN016 OVC021 01/M02 Q1024 NOSIG
11:20
M
1 °C 10 km+ 2,700 ft 040° 040° 7 kt METAR EDDS 281020Z AUTO 04007KT 9999 FEW012 BKN027 OVC047 01/M02 Q1024 NOSIG
10:50
V
1 °C 10 km+ 3,300 ft 030° 030° 6 kt METAR EDDS 280950Z AUTO 03006KT 010V070 9999 FEW012 BKN033 OVC047 01/M02 Q1024 NOSIG
10:20
V
0 °C 10 km+ 3,100 ft 030° 030° 5 kt METAR EDDS 280920Z AUTO 03005KT 360V060 9999 FEW011 OVC031 OVC048 00/M02 Q1024 NOSIG
09:50
M
0 °C 10 km+ 2,200 ft 020° 020° 6 kt METAR EDDS 280850Z AUTO 02006KT 9999 FEW016 BKN022 00/M02 Q1024 NOSIG
09:20
V
0 °C 10 km+ 3,300 ft 010° 010° 6 kt METAR EDDS 280820Z AUTO 01006KT 9999 SCT024 BKN033 OVC049 M00/M02 Q1024 NOSIG
08:50
M
0 °C 10 km+ 2,300 ft 360° 360° 7 kt METAR EDDS 280750Z AUTO 36007KT 9999 BKN023 BKN029 M00/M02 Q1024 NOSIG
08:20
M
0 °C 10 km+ 2,700 ft 360° 360° 7 kt METAR EDDS 280720Z AUTO 36007KT 9999 BKN027 BKN033 M00/M02 Q1023 NOSIG
07:50
V
0 °C 10 km+ 3,100 ft 010° 010° 5 kt METAR EDDS 280650Z AUTO 01005KT 340V040 9999 OVC031 M00/M02 Q1023 NOSIG
07:20
V
-1 °C 10 km+ 3,000 ft 020° 020° 5 kt METAR EDDS 280620Z AUTO 02005KT 9999 FEW010 OVC030 M01/M02 Q1023
06:50
M
0 °C 10 km+ 2,800 ft 030° 030° 5 kt METAR EDDS 280550Z AUTO 03005KT 9999 FEW011 OVC028 M00/M02 Q1023 NOSIG
06:20
M
0 °C 10 km+ 2,700 ft 010° 010° 6 kt METAR EDDS 280520Z AUTO 01006KT 9999 SCT013 OVC027 M00/M02 Q1023 NOSIG
05:50
M
0 °C 10 km+ 1,400 ft 020° 020° 6 kt METAR EDDS 280450Z AUTO 02006KT 9999 BKN014 OVC027 M00/M02 Q1022
05:20
M
0 °C 10 km+ 1,300 ft 010° 010° 5 kt METAR EDDS 280420Z AUTO 01005KT 350V050 9999 OVC013 M00/M03 Q1022
04:50
M
-1 °C 10 km+ 1,300 ft 020° 020° 6 kt METAR EDDS 280350Z AUTO 02006KT 9999 OVC013 M01/M03 Q1022
04:20
M
0 °C 10 km+ 1,400 ft 020° 020° 6 kt METAR EDDS 280320Z AUTO 02006KT 9999 BKN014 OVC026 OVC032 M00/M03 Q1022
03:50
M
-1 °C 10 km+ 1,500 ft 030° 030° 5 kt METAR EDDS 280250Z AUTO 03005KT 9999 BKN015 BKN028 OVC032 M01/M03 Q1022
03:20
M
-1 °C 10 km+ 1,800 ft 020° 020° 6 kt METAR EDDS 280220Z AUTO 02006KT 350V050 9999 BKN018 OVC027 M01/M03 Q1022
02:50
M
-1 °C 10 km+ 1,700 ft 010° 010° 6 kt METAR EDDS 280150Z AUTO 01006KT 330V050 9999 BKN017 OVC022 M01/M03 Q1022
02:20
M
-1 °C 10 km+ 1,700 ft 360° 360° 6 kt METAR EDDS 280120Z AUTO 36006KT 9999 OVC017 M01/M03 Q1022
01:50
M
-1 °C 10 km+ 1,600 ft 020° 020° 5 kt METAR EDDS 280050Z AUTO 02005KT 9999 OVC016 M01/M03 Q1022
01:20
M
-1 °C 10 km+ 1,500 ft 020° 020° 5 kt METAR EDDS 280020Z AUTO 02005KT 9999 BKN015 BKN022 OVC029 M01/M03 Q1022
00:50
M
-1 °C 10 km+ 1,600 ft 020° 020° 6 kt METAR EDDS 272350Z AUTO 02006KT 360V060 9999 BKN016 BKN024 OVC034 M01/M03 Q1022
00:20
M
-1 °C 10 km+ 2,700 ft 020° 020° 7 kt METAR EDDS 272320Z AUTO 02007KT 9999 FEW015 BKN027 OVC037 M01/M03 Q1022

January 27, 2023

Time Code Weather Temp. Visibility Ceiling Wind METAR/SPECI
23:50
V
-1 °C 10 km+ 3,300 ft 010° 010° 7 kt METAR EDDS 272250Z AUTO 01007KT 9999 SCT017 OVC033 M01/M03 Q1022
23:20
M
-1 °C 10 km+ 1,900 ft 010° 010° 7 kt METAR EDDS 272220Z AUTO 01007KT 9999 BKN019 OVC036 M01/M03 Q1022
22:50
M
-1 °C 10 km+ 1,900 ft 010° 010° 7 kt METAR EDDS 272150Z AUTO 01007KT 340V040 9999 OVC019 M01/M03 Q1022
22:20
M
0 °C 10 km+ 1,900 ft 010° 010° 6 kt METAR EDDS 272120Z AUTO 01006KT 330V040 9999 OVC019 M00/M03 Q1022
21:50
M
-1 °C 10 km+ 1,800 ft 360° 360° 6 kt METAR EDDS 272050Z AUTO 36006KT 9999 OVC018 M01/M03 Q1022 NOSIG
21:20
M
-1 °C 10 km+ 1,800 ft 350° 350° 5 kt METAR EDDS 272020Z AUTO 35005KT 9999 OVC018 M01/M03 Q1022 NOSIG
20:50
M
-1 °C 10 km+ 1,800 ft 350° 350° 5 kt METAR EDDS 271950Z AUTO 35005KT 9999 OVC018 M01/M03 Q1021 NOSIG
20:20
M
-1 °C 10 km+ 1,700 ft 350° 350° 3 kt METAR EDDS 271920Z AUTO 35003KT 9999 OVC017 M01/M03 Q1021 NOSIG
19:50
M
-1 °C 10 km+ 1,700 ft 360° 360° 3 kt METAR EDDS 271850Z AUTO 36003KT 330V040 9999 OVC017 M01/M03 Q1021 NOSIG
19:20
M
-1 °C 10 km+ 1,800 ft 010° 010° 4 kt METAR EDDS 271820Z AUTO 01004KT 340V060 9999 OVC018 M01/M03 Q1021 NOSIG
18:50
M
-1 °C 10 km+ 1,700 ft 030° 030° 4 kt METAR EDDS 271750Z AUTO 03004KT 9999 OVC017 M01/M03 Q1021 NOSIG
18:20
M
-1 °C 10 km+ 1,400 ft 020° 020° 5 kt METAR EDDS 271720Z AUTO 02005KT 350V050 9999 OVC014 M01/M03 Q1021 NOSIG
17:50
M
-1 °C 10 km+ 1,300 ft 020° 020° 7 kt METAR EDDS 271650Z AUTO 02007KT 9999 OVC013 M01/M04 Q1021 NOSIG
17:20
M
-1 °C 10 km+ 1,300 ft 020° 020° 7 kt METAR EDDS 271620Z AUTO 02007KT 9999 OVC013 M01/M04 Q1021 NOSIG
16:50
M
-1 °C 10 km+ 1,100 ft 020° 020° 7 kt METAR EDDS 271550Z AUTO 02007KT 9999 OVC011 M01/M03 Q1020 NOSIG
16:20
I
-1 °C 10 km+ 900 ft 360° 360° 6 kt METAR EDDS 271520Z AUTO 36006KT 9999 OVC009 M01/M03 Q1020 NOSIG
15:50
M
-1 °C 10 km+ 1,000 ft 360° 360° 8 kt METAR EDDS 271450Z AUTO 36008KT 9999 OVC010 M01/M03 Q1020 TEMPO OVC009
15:20
M
-1 °C 10 km+ 1,100 ft 350° 350° 7 kt METAR EDDS 271420Z AUTO 35007KT 320V020 9999 OVC011 M01/M03 Q1020 NOSIG
14:50
M
-1 °C 10 km+ 1,200 ft 360° 360° 5 kt METAR EDDS 271350Z AUTO 36005KT 330V040 9999 OVC012 M01/M04 Q1020 NOSIG
14:20
M
-1 °C 10 km+ 1,200 ft 360° 360° 5 kt METAR EDDS 271320Z AUTO 36005KT 230V040 9999 OVC012 M01/M04 Q1019 NOSIG
13:50
M
-1 °C 10 km+ 1,100 ft 040° 040° 6 kt METAR EDDS 271250Z AUTO 04006KT 360V060 9999 OVC011 M01/M04 Q1019 NOSIG
13:20
M
-1 °C 10 km+ 1,100 ft 030° 030° 5 kt METAR EDDS 271220Z AUTO 03005KT 9999 -SN OVC011 M01/M04 Q1020 NOSIG
12:50
M
-1 °C 10 km+ 1,100 ft 020° 020° 4 kt METAR EDDS 271150Z AUTO 02004KT 340V050 9999 OVC011 M01/M04 Q1020 NOSIG
12:20
M
-1 °C 10 km+ 1,100 ft 040° 040° 5 kt METAR EDDS 271120Z AUTO 04005KT 9999 OVC011 M01/M04 Q1020 NOSIG
11:50
M
-1 °C 10 km+ 1,200 ft 030° 030° 5 kt METAR EDDS 271050Z AUTO 03005KT 360V060 9999 OVC012 M01/M04 Q1020 NOSIG
11:20
I
-2 °C 10 km+ 900 ft 020° 020° 6 kt METAR EDDS 271020Z AUTO 02006KT 340V050 9999 BKN009 OVC012 M02/M04 Q1020 NOSIG
10:50
M
-2 °C 10 km+ 1,200 ft 020° 020° 7 kt METAR EDDS 270950Z AUTO 02007KT 350V050 9999 OVC012 M02/M04 Q1020 NOSIG
10:20
M
-2 °C 10 km+ 1,400 ft 020° 020° 6 kt METAR EDDS 270920Z AUTO 02006KT 9999 FEW009 OVC014 M02/M04 Q1020 NOSIG
09:50
M
-2 °C 10 km+ 1,400 ft 020° 020° 5 kt METAR EDDS 270850Z AUTO 02005KT 9999 FEW008 OVC014 M02/M04 Q1020 TEMPO BKN013
09:20
M
-2 °C 10 km+ 1,600 ft 010° 010° 5 kt METAR EDDS 270820Z AUTO 01005KT 340V040 9999 FEW008 OVC016 M02/M04 Q1019
08:50
M
-2 °C 10 km+ 1,600 ft 350° 350° 4 kt METAR EDDS 270750Z AUTO 35004KT 9999 SCT008 OVC016 M02/M04 Q1019 NOSIG
08:20
M
-2 °C 10 km+ 1,600 ft 020° 020° 5 kt METAR EDDS 270720Z AUTO 02005KT 340V040 9999 SCT009 OVC016 M02/M04 Q1019
07:50
M
-2 °C 10 km+ 1,500 ft 340° 340° 5 kt METAR EDDS 270650Z AUTO 34005KT 290V020 9999 SCT008 OVC015 M02/M04 Q1019 NOSIG
07:20
I
-2 °C 10 km+ 900 ft 350° 350° 5 kt METAR EDDS 270620Z AUTO 35005KT 320V020 9999 BKN009 OVC016 M02/M04 Q1019 BECMG BKN011
06:50
I
-2 °C 10 km+ 800 ft 360° 360° 5 kt METAR EDDS 270550Z AUTO 36005KT 310V030 9999 BKN008 OVC016 M02/M04 Q1018 BECMG SCT008
06:20
M
-2 °C 10 km+ 1,200 ft 340° 340° 6 kt METAR EDDS 270520Z AUTO 34006KT 320V020 9999 SCT008 BKN012 OVC017 M02/M04 Q1018 TEMPO BKN008
05:50
M
-2 °C 10 km+ 1,700 ft 340° 340° 7 kt METAR EDDS 270450Z AUTO 34007KT 9999 SCT007 OVC017 M02/M04 Q1018
05:20
I
-2 °C 10 km+ 700 ft 350° 350° 4 kt METAR EDDS 270420Z AUTO 35004KT 320V030 9999 BKN007 BKN012 OVC017 M02/M04 Q1018
04:50
I
-2 °C 10 km+ 700 ft 010° 010° 5 kt METAR EDDS 270350Z AUTO 01005KT 340V040 9999 OVC007 M02/M04 Q1018
04:20
I
-2 °C 10 km+ 600 ft 360° 360° 4 kt METAR EDDS 270320Z AUTO 36004KT 9999 OVC006 M02/M04 Q1018
03:50
I
-2 °C 9 km 600 ft 350° 350° 4 kt METAR EDDS 270250Z AUTO 35004KT 9000 BKN006 OVC010 M02/M04 Q1018
03:20
I
-2 °C 10 km+ 600 ft 350° 350° 5 kt METAR EDDS 270220Z AUTO 35005KT 9999 OVC006 M02/M04 Q1018
02:50
I
-2 °C 10 km+ 600 ft 350° 350° 5 kt METAR EDDS 270150Z AUTO 35005KT 320V030 9999 BKN006 M02/M04 Q1018
02:20
I
-2 °C 10 km+ 600 ft 340° 340° 5 kt METAR EDDS 270120Z AUTO 34005KT 310V010 9999 BKN006 OVC010 M02/M04 Q1018
01:50
I
-2 °C 10 km+ 700 ft 320° 320° 4 kt METAR EDDS 270050Z AUTO 32004KT 9999 BKN007 M02/M04 Q1018
01:20
I
-2 °C 10 km+ 600 ft 330° 330° 6 kt METAR EDDS 270020Z AUTO 33006KT 9999 BKN006 BKN011 M02/M04 Q1018
00:50
I
-2 °C 10 km+ 600 ft 350° 350° 4 kt METAR EDDS 262350Z AUTO 35004KT 310V020 9999 BKN006 OVC010 M02/M04 Q1018
00:20
I
-2 °C 10 km+ 600 ft 340° 340° 4 kt METAR EDDS 262320Z AUTO 34004KT 300V010 9999 BKN006 BKN017 M02/M04 Q1019

January 26, 2023

Time Code Weather Temp. Visibility Ceiling Wind METAR/SPECI
23:50
I
-2 °C 10 km+ 600 ft 350° 350° 6 kt METAR EDDS 262250Z AUTO 35006KT 320V020 9999 BKN006 M02/M03 Q1019
23:20
I
-2 °C 10 km+ 600 ft 340° 340° 7 kt METAR EDDS 262220Z AUTO 34007KT 9999 BKN006 BKN010 OVC018 M02/M03 Q1019
22:50
I
-2 °C 10 km+ 600 ft 350° 350° 7 kt METAR EDDS 262150Z AUTO 35007KT 9999 BKN006 BKN010 OVC018 M02/M03 Q1019 TEMPO -FZDZ
22:20
I
-2 °C 7 km 600 ft 330° 330° 8 kt METAR EDDS 262120Z AUTO 33008KT 7000 BKN006 BKN010 M02/M03 Q1019 NOSIG
21:50
I
-2 °C 6 km 700 ft 330° 330° 8 kt METAR EDDS 262050Z AUTO 33008KT 6000 OVC007 M02/M03 Q1019 TEMPO 4000 -FZDZ
21:20
I
-2 °C 7 km 600 ft 330° 330° 8 kt METAR EDDS 262020Z AUTO 33008KT 7000 BKN006 OVC010 M02/M03 Q1019 TEMPO -FZDZ
20:50
I
-2 °C 6 km 600 ft 330° 330° 9 kt METAR EDDS 261950Z AUTO 33009KT 6000 BKN006 OVC009 M02/M03 Q1019 REFZDZ TEMPO 4000 -FZDZ
20:20
I
-2 °C 7 km 500 ft 320° 320° 8 kt METAR EDDS 261920Z AUTO 32008KT 7000 OVC005 M02/M03 Q1019 REFZDZ BECMG NSW
19:50
L
-2 °C 7 km 400 ft 330° 330° 7 kt METAR EDDS 261850Z AUTO 33007KT 7000 -FZDZ OVC004 M02/M03 Q1019 BECMG NSW
19:20
I
-2 °C 6 km 500 ft 320° 320° 6 kt METAR EDDS 261820Z AUTO 32006KT 280V360 6000 -FZDZ BKN005 OVC008 M02/M03 Q1019 TEMPO OVC004
18:50
I
-1 °C 10 km+ 700 ft Var Var 2 kt METAR EDDS 261750Z AUTO VRB02KT 9999 OVC007 M01/M03 Q1019 NOSIG
18:20
I
-1 °C 10 km+ 900 ft Var Var 2 kt METAR EDDS 261720Z AUTO VRB02KT 9999 OVC009 M01/M03 Q1019 NOSIG
17:50
M
-1 °C 10 km+ 1,000 ft 350° 350° 4 kt METAR EDDS 261650Z AUTO 35004KT 9999 OVC010 M01/M03 Q1019 NOSIG
17:20
I
-1 °C 10 km+ 900 ft 340° 340° 5 kt METAR EDDS 261620Z AUTO 34005KT 310V010 9999 BKN009 OVC013 M01/M03 Q1019 NOSIG
16:50
I
-1 °C 10 km+ 800 ft 350° 350° 4 kt METAR EDDS 261550Z AUTO 35004KT 320V020 9999 BKN008 M01/M03 Q1019 NOSIG
16:20
I
-1 °C 10 km+ 900 ft 350° 350° 5 kt METAR EDDS 261520Z AUTO 35005KT 310V020 9999 OVC009 M01/M03 Q1019 TEMPO -FZDZ
15:50
I
-1 °C 10 km+ 800 ft 340° 340° 4 kt METAR EDDS 261450Z AUTO 34004KT 310V010 9999 OVC008 M01/M03 Q1019 TEMPO -FZDZ
15:20
I
-1 °C 10 km+ 700 ft 360° 360° 4 kt METAR EDDS 261420Z AUTO 36004KT 330V040 9999 OVC007 M01/M03 Q1019 TEMPO -FZDZ
14:50
I
-2 °C 10 km+ 800 ft 360° 360° 3 kt METAR EDDS 261350Z AUTO 36003KT 270V060 9999 BKN008 M02/M03 Q1018 NOSIG
14:20
I
-1 °C 10 km+ 800 ft 350° 350° 5 kt METAR EDDS 261320Z AUTO 35005KT 320V020 9999 OVC008 M01/M03 Q1019 NOSIG
13:50
I
-2 °C 10 km+ 800 ft Var Var 6 kt METAR EDDS 261250Z AUTO VRB06KT 9999 OVC008 M02/M03 Q1019 NOSIG
13:20
I
-1 °C 10 km+ 900 ft 360° 360° 6 kt METAR EDDS 261220Z AUTO 36006KT 310V040 9999 OVC009 M01/M03 Q1019 NOSIG
12:50
M
-1 °C 10 km+ 1,100 ft 310° 310° 5 kt METAR EDDS 261150Z AUTO 31005KT 280V350 9999 OVC011 M01/M03 Q1019 NOSIG
12:20
M
-1 °C 10 km+ 1,000 ft 320° 320° 7 kt METAR EDDS 261120Z AUTO 32007KT 9999 OVC010 M01/M03 Q1020 TEMPO -FZDZ
11:50
M
-1 °C 10 km+ 1,000 ft 310° 310° 6 kt METAR EDDS 261050Z AUTO 31006KT 9999 OVC010 M01/M03 Q1020 TEMPO -FZDZ
11:20
I
-1 °C 10 km+ 900 ft 350° 350° 5 kt METAR EDDS 261020Z AUTO 35005KT 320V030 9999 OVC009 M01/M03 Q1020 NOSIG
10:50
M
-1 °C 10 km+ 1,000 ft 340° 340° 5 kt METAR EDDS 260950Z AUTO 34005KT 300V020 9999 OVC010 M01/M03 Q1020 REFZDZ NOSIG
10:20
I
-1 °C 10 km+ 900 ft 350° 350° 5 kt METAR EDDS 260920Z AUTO 35005KT 310V020 9999 -FZDZ OVC009 M01/M02 Q1020 NOSIG
09:50
I
-1 °C 10 km+ 800 ft 360° 360° 5 kt METAR EDDS 260850Z AUTO 36005KT 330V030 9999 -FZDZ OVC008 M01/M03 Q1020 NOSIG
09:20
I
-1 °C 9 km 800 ft 360° 360° 4 kt METAR EDDS 260820Z AUTO 36004KT 320V050 9000 -FZDZ OVC008 M01/M03 Q1020 NOSIG
08:50
I
-1 °C 9 km 700 ft 360° 360° 6 kt METAR EDDS 260750Z AUTO 36006KT 340V040 9000 -FZDZ OVC007 M01/M02 Q1020 NOSIG

We and third parties follow your internet behavior on our website with cookies. If you continue, we assume you agree with our cookie policy.